Terminal Aerodrome Forecast
Issued by NWS

Home | Current Version | Previous Version | Text Only | Print | Product List | Glossary On
Versions: 1 2 3 4 5 6 7 8 9 10 11 12 13 14
000
FTUS43 KSGF 110500
TAFJLN
TAF
KJLN 110520Z 1106/1206 15008KT P6SM SCT100 SCT250
     FM111500 20012KT P6SM SCT050 SCT250
     FM120100 17007KT P6SM SKC=

USA.gov is the U.S. government's official web portal to all federal, state and local government web resources and services.